Terminal Aerodrome Forecast
Issued by NWS

Home | Current Version | Previous Version | Text Only | Print | Product List | Glossary On
Versions: 1 2 3 4 5 6 7 8 9 10 11 12 13 14 15 16 17
793
FTUS43 KOAX 230533
TAFSNY
TAF
KSNY 230533Z 2306/2406 15015KT P6SM SCT080 BKN150
     FM231000 16011KT P6SM SCT025 BKN090
      TEMPO 2311/2314 2SM BR OVC020
     FM231700 20017G24KT P6SM FEW080 SCT150
     FM240100 02016G23KT P6SM OVC100=

USA.gov is the U.S. government's official web portal to all federal, state and local government web resources and services.